Bangkok, Thailandia

11:06 AM ICT del 18 Gennaio 2017 (GMT +0700)
Soi Ekkarat 15/2 | | Change Station

Alt. 19 ft 13.96 °N, 100.60 °E | Updated 36 seconds ago

Partly Cloudy
Parzialmente nuvoloso
83.1 °F
Sembra 91 °F
N
5.0
Vento Variabile Vento da SSE
Gusts 12.4 mph

Oggi
Massima -- | Minima -- °F
--% Possibilità di precip.
Ieri
Massima -- | Minima -- °F
Precip. -- in
Pressione 30.01 in
Visibilità 6.2 miglia
Nuvole Alcuni 3000 ft
Indice di calore 91 °F
Punto di rugiada 76 °F
Umidità 78%
Piovosità 0.00 in
Spessore del manto nevoso Non disponibile.
6:45 AM 6:10 PM
Gobba a levante, 67% visible
METAR VTBD 180330Z 10012KT 9999 FEW030 30/23 Q1016 NOSIG
Pressione 30.01 in
Visibilità 6.2 miglia
Nuvole Alcuni 3000 ft
Indice di calore 91 °F
Punto di rugiada 76 °F
Umidità 78%
Piovosità 0.00 in
Spessore del manto nevoso Non disponibile.
6:45 AM 6:10 PM
Gobba a levante, 67% visible
METAR VTBD 180330Z 10012KT 9999 FEW030 30/23 Q1016 NOSIG

Get Your Daily Forecast Email!

Thanks for signing up!

Be on the lookout for a verification email in your inbox.

You'll start receiving the daily forecast at 8 AM.

×

10-Day Weather Forecast

No radar image for this location.
×

Almanac

Astronomia

Jan. 18, 2017 Alba Tramonto
Ora attuale
Crepuscolo civile
Crepuscolo nautico
Crepuscolo astronomico
Luna
Estensione della luce visibile
Lunghezza del giorno
Tomorrow will be .
, % of the Moon is Illuminated

Gli estremi di oggi

Massime Regione Minime Regione

Community

WunderPhotos

Upload Photos

1,962,540 foto caricate!

WunderBlog® & News

Nearby

Qualità dell'aria

  Qualità dell'aria Indice AQ Inquinante
Not available.

Profondità neve

Stazione Profondità Altitudine

Attività sismica

Città  Distanza Mag. Data & Ora
Minimo Magnitudo Mostrato è 2.5.

Temperature delle acque costiere

Località Temperatura

Stations

Stazioni meteo nelle vicinanze

Ubicazione della stazione Temp. Raffreddamento del vento Punto di rugiada Umidità Vento Precip. Alt. Aggiornato Tipo